Time;durP1;ratioP1;P1;durP2;ratioP2;P2;SDS_P1;SDS_P2;PMS_P1;PMS_P2;Temp;Humidity;BMP_temperature;BMP_pressure;BME280_temperature;BME280_humidity;BME280_pressure;Samples;Min_cycle;Max_cycle;Signal;HPM_P1;HPM_P2
2022/04/28 00:00:41;;;;;;;16.27;13.10;;;6.60;99.90;;;5.14;98.33;98869.25;5088401;28;20565;-76
2022/04/28 00:03:09;;;;;;;15.17;13.13;;;6.40;99.90;;;5.20;97.95;98854.38;5085028;28;20461;-75
2022/04/28 00:05:38;;;;;;;13.53;12.20;;;6.50;99.90;;;5.23;97.89;98870.97;5086282;28;20458;-77
2022/04/28 00:08:06;;;;;;;13.07;11.77;;;6.50;99.90;;;5.19;99.20;98874.97;5080881;28;20540;-75
2022/04/28 00:10:34;;;;;;;14.03;12.60;;;6.50;99.90;;;5.13;99.50;98877.47;5082965;28;20560;-74
2022/04/28 00:13:01;;;;;;;16.40;11.97;;;6.40;99.90;;;5.25;98.49;98870.81;5089275;28;20467;-76
2022/04/28 00:15:29;;;;;;;14.00;12.60;;;6.50;99.90;;;5.17;98.17;98871.63;5088299;28;20458;-76
2022/04/28 00:17:56;;;;;;;14.13;12.90;;;6.50;99.90;;;5.02;98.55;98857.16;5097678;28;20489;-80
2022/04/28 00:20:24;;;;;;;13.53;12.20;;;6.40;99.90;;;5.05;98.53;98871.03;5086555;28;21002;-75
2022/04/28 00:22:52;;;;;;;14.77;13.37;;;6.40;99.90;;;5.06;98.15;98870.03;5093618;28;21122;-81
2022/04/28 00:25:21;;;;;;;13.63;12.33;;;6.30;99.90;;;4.96;98.49;98874.69;5085191;28;20524;-78
2022/04/28 00:27:48;;;;;;;14.83;13.33;;;6.30;99.90;;;4.90;99.02;98868.13;5081169;28;20694;-79
2022/04/28 00:30:14;;;;;;;13.67;12.33;;;6.20;99.90;;;4.96;98.35;98867.47;5081604;28;20456;-79
2022/04/28 00:32:42;;;;;;;14.33;12.83;;;6.20;99.90;;;4.88;98.54;98866.59;5076234;28;20469;-79
2022/04/28 00:35:09;;;;;;;14.30;12.90;;;6.20;99.90;;;4.73;98.47;98861.81;5079903;28;20533;-78
2022/04/28 00:37:36;;;;;;;14.37;12.83;;;6.10;99.90;;;4.89;98.60;98862.91;5074722;28;20548;-74
2022/04/28 00:40:06;;;;;;;14.47;12.97;;;6.20;99.90;;;4.82;98.18;98857.34;5079901;28;20937;-79
2022/04/28 00:42:33;;;;;;;13.60;12.37;;;6.20;99.90;;;4.77;98.72;98865.84;5073231;28;20512;-79
2022/04/28 00:45:00;;;;;;;17.10;12.07;;;6.10;99.90;;;4.75;98.49;98867.84;5086943;28;20515;-76
2022/04/28 00:50:38;;;;;;;12.97;11.67;;;6.10;99.90;;;4.72;98.84;98870.03;5068713;28;20465;-76
2022/04/28 00:53:00;;;;;;;13.50;12.30;;;6.00;99.90;;;4.67;98.12;98870.47;5074215;28;20477;-80
2022/04/28 00:55:30;;;;;;;14.30;12.90;;;6.00;99.90;;;4.61;97.83;98866.59;5073739;28;21044;-78
2022/04/28 00:57:58;;;;;;;14.23;12.83;;;6.00;99.90;;;4.50;98.10;98870.38;5077162;28;20878;-76
2022/04/28 01:00:25;;;;;;;13.63;12.33;;;5.90;99.90;;;4.49;98.14;98874.03;5076015;28;20469;-77
2022/04/28 01:02:53;;;;;;;13.90;12.53;;;5.80;99.90;;;4.45;98.86;98878.00;5073182;28;20547;-78
2022/04/28 01:05:20;;;;;;;12.20;11.00;;;5.80;99.90;;;4.49;98.46;98882.06;5077970;28;20458;-78
2022/04/28 01:07:47;;;;;;;12.90;11.53;;;5.80;99.90;;;4.44;98.72;98876.31;5075470;28;20645;-76
2022/04/28 01:10:15;;;;;;;14.17;12.30;;;5.70;99.90;;;4.30;99.28;98880.41;5081629;28;20556;-77
2022/04/28 01:12:44;;;;;;;14.07;12.67;;;5.70;99.90;;;4.27;99.74;98870.00;5082293;28;20472;-78
2022/04/28 01:15:11;;;;;;;13.67;12.27;;;5.60;99.90;;;4.20;99.41;98875.13;5084160;28;20446;-79
2022/04/28 01:17:38;;;;;;;13.47;12.10;;;5.50;99.90;;;4.31;98.84;98874.03;5077227;28;20997;-75
2022/04/28 01:20:07;;;;;;;13.30;11.90;;;5.60;99.90;;;4.28;98.78;98869.00;5080800;28;20495;-77
2022/04/28 01:22:36;;;;;;;13.73;12.20;;;5.60;99.90;;;4.28;99.15;98877.03;5101326;28;20478;-76
2022/04/28 01:25:07;;;;;;;17.93;12.17;;;5.60;99.90;;;4.21;99.24;98876.81;5082020;28;20457;-77
2022/04/28 01:27:34;;;;;;;13.27;11.90;;;5.60;99.90;;;4.06;99.82;98879.16;5084115;28;20909;-78
2022/04/28 01:30:01;;;;;;;15.60;13.00;;;5.40;99.90;;;4.22;99.42;98878.47;5113834;27;20935;-72
2022/04/28 01:32:28;;;;;;;13.87;12.53;;;5.50;99.90;;;4.15;99.49;98885.44;5086162;28;20484;-80
2022/04/28 01:34:55;;;;;;;14.17;12.77;;;5.50;99.90;;;4.27;99.71;98878.03;5082591;28;20485;-78
2022/04/28 01:37:22;;;;;;;16.67;12.93;;;5.60;99.90;;;4.20;99.27;98880.47;5084494;28;20505;-79
2022/04/28 01:39:50;;;;;;;13.77;12.37;;;5.60;99.90;;;4.18;99.77;98882.47;5081533;28;20458;-77
2022/04/28 01:42:17;;;;;;;13.17;11.87;;;5.50;99.90;;;4.14;99.50;98881.06;5082950;28;20457;-77
2022/04/28 01:44:44;;;;;;;13.70;12.30;;;5.50;99.90;;;4.11;98.82;98868.00;5084470;28;20469;-78
2022/04/28 01:47:11;;;;;;;16.70;12.83;;;5.50;99.90;;;4.21;99.13;98882.16;5081386;28;20529;-77
2022/04/28 01:49:38;;;;;;;13.87;11.53;;;5.50;99.90;;;4.16;98.57;98878.25;5107229;27;20552;-74
2022/04/28 01:55:00;;;;;;;17.60;12.57;;;5.50;99.90;;;4.05;98.73;98876.66;5075569;28;20482;-78
2022/04/28 01:57:29;;;;;;;13.47;12.07;;;5.40;99.90;;;3.94;98.92;98873.19;5079965;28;20464;-75
2022/04/28 01:59:58;;;;;;;13.93;12.13;;;5.30;99.90;;;3.89;98.87;98875.50;5081527;28;20455;-78
2022/04/28 02:02:25;;;;;;;13.53;12.33;;;5.30;99.90;;;3.86;98.80;98875.78;5074237;28;20468;-74
2022/04/28 02:04:58;;;;;;;14.03;12.43;;;5.20;99.90;;;3.90;99.28;98873.66;5079886;28;20491;-76
2022/04/28 02:07:25;;;;;;;14.63;12.50;;;5.20;99.90;;;3.55;99.36;98822.66;5078763;28;20568;-77
2022/04/28 02:09:54;;;;;;;13.60;12.27;;;5.20;99.90;;;3.76;99.55;98875.84;5084107;28;20534;-77
2022/04/28 02:12:21;;;;;;;13.27;11.97;;;5.10;99.90;;;3.86;99.32;98878.44;5086687;28;20463;-78
2022/04/28 02:14:48;;;;;;;14.73;12.37;;;5.20;99.90;;;3.85;99.25;98868.75;5081279;28;20475;-79
2022/04/28 02:17:18;;;;;;;14.97;12.97;;;5.20;99.90;;;3.85;99.36;98871.44;5083380;28;20458;-80
2022/04/28 02:19:45;;;;;;;15.10;13.50;;;5.20;99.90;;;3.76;98.70;98875.03;5088065;28;20504;-80
2022/04/28 02:22:12;;;;;;;16.20;12.53;;;5.20;99.90;;;3.59;99.00;98887.34;5092963;28;20450;-80
2022/04/28 02:24:39;;;;;;;13.80;12.40;;;5.10;99.90;;;3.50;99.84;98878.41;5090079;28;20551;-80
2022/04/28 02:27:08;;;;;;;13.47;12.17;;;4.90;99.90;;;3.36;99.96;98877.91;5090658;28;20467;-74
2022/04/28 02:29:36;;;;;;;13.43;11.70;;;4.80;99.90;;;3.38;100.00;98881.25;5089141;28;20498;-79
2022/04/28 02:32:04;;;;;;;15.07;12.40;;;4.80;99.90;;;3.41;100.00;98880.13;5089929;28;20460;-76
2022/04/28 02:34:31;;;;;;;13.53;12.23;;;4.70;99.90;;;3.53;99.56;98878.09;5085490;28;20475;-79
2022/04/28 02:36:59;;;;;;;15.50;13.90;;;4.80;99.90;;;3.53;99.54;98867.41;5093222;28;20473;-80
2022/04/28 02:39:26;;;;;;;15.70;13.20;;;4.90;99.90;;;3.19;98.97;98817.25;5093456;28;20489;-79
2022/04/28 02:41:54;;;;;;;13.90;12.67;;;4.90;99.90;;;3.54;99.10;98879.78;5091575;28;20527;-78
2022/04/28 02:44:22;;;;;;;13.87;12.50;;;4.90;99.90;;;3.42;99.08;98889.81;5088117;28;20449;-75
2022/04/28 02:46:49;;;;;;;13.83;12.53;;;4.80;99.90;;;3.37;99.20;98884.91;5100120;28;20518;-76
2022/04/28 02:49:17;;;;;;;14.20;12.70;;;4.70;99.90;;;3.29;99.37;98884.84;5080030;28;20437;-78
2022/04/28 02:51:44;;;;;;;14.20;12.60;;;4.70;99.90;;;3.40;99.14;98884.63;5080484;28;20436;-77
2022/04/28 02:54:11;;;;;;;13.77;12.40;;;4.70;99.90;;;3.35;98.63;98883.41;5082228;28;20558;-74
2022/04/28 02:56:38;;;;;;;14.10;12.70;;;4.70;99.90;;;3.27;99.49;98889.50;5093805;28;20534;-79
2022/04/28 02:59:06;;;;;;;14.53;13.13;;;4.60;99.90;;;3.23;99.27;98888.94;5087871;28;20535;-76
2022/04/28 03:01:34;;;;;;;15.13;13.50;;;4.60;99.90;;;3.22;99.92;98887.25;5087338;28;20440;-78
2022/04/28 03:04:02;;;;;;;14.87;13.10;;;4.60;99.90;;;3.21;99.31;98890.91;5087938;28;20447;-76
2022/04/28 03:12:09;;;;;;;17.43;13.13;;;4.50;99.90;;;3.09;99.84;98892.91;5093192;28;20456;-76
2022/04/28 03:14:36;;;;;;;13.53;12.13;;;4.50;99.90;;;3.05;100.00;98896.84;5093817;28;20451;-74
2022/04/28 03:17:05;;;;;;;14.83;13.37;;;4.40;99.90;;;3.09;99.52;98900.09;5102785;28;20989;-76
2022/04/28 03:19:32;;;;;;;14.97;13.47;;;4.40;99.90;;;3.04;99.62;98899.69;5082707;28;20488;-77
2022/04/28 03:21:59;;;;;;;15.13;13.43;;;4.40;99.90;;;2.89;99.77;98900.16;5111322;27;20464;-77
2022/04/28 03:24:26;;;;;;;13.47;12.20;;;4.30;99.90;;;2.85;100.00;98903.25;5076108;28;20536;-78
2022/04/28 03:26:53;;;;;;;13.53;12.13;;;4.20;99.90;;;2.81;100.00;98903.53;5089120;28;20480;-77
2022/04/28 03:29:20;;;;;;;16.20;14.03;;;4.20;99.90;;;2.82;100.00;98905.22;5083504;28;20505;-77
2022/04/28 03:31:46;;;;;;;13.83;12.43;;;4.20;99.90;;;2.87;100.00;98903.94;5089364;28;21024;-78
2022/04/28 03:34:15;;;;;;;14.63;13.13;;;4.20;99.90;;;2.91;99.96;98916.00;5087618;28;20552;-78
2022/04/28 03:36:51;;;;;;;14.93;13.33;;;4.20;99.90;;;2.82;99.73;98907.91;5079696;28;20480;-79
2022/04/28 03:39:18;;;;;;;14.30;12.67;;;4.20;99.90;;;2.75;99.73;98912.09;5089770;28;20797;-79
2022/04/28 03:41:46;;;;;;;17.03;13.33;;;4.10;99.90;;;2.72;100.00;98912.41;5092216;28;20452;-78
2022/04/28 03:44:13;;;;;;;14.97;13.37;;;4.10;99.90;;;2.74;100.00;98922.94;5088292;28;20982;-74
2022/04/28 03:46:40;;;;;;;15.37;13.07;;;4.10;99.90;;;2.71;100.00;98916.06;5081501;28;20483;-78
2022/04/28 03:49:07;;;;;;;14.97;12.70;;;4.10;99.90;;;2.41;100.00;98908.06;5080659;28;20537;-79
2022/04/28 03:51:35;;;;;;;14.33;12.80;;;4.00;99.90;;;2.32;100.00;98921.41;5083711;28;20943;-77
2022/04/28 03:54:03;;;;;;;16.83;14.30;;;3.80;99.90;;;2.24;100.00;98924.78;5078692;28;20480;-77
2022/04/28 03:56:31;;;;;;;15.27;13.67;;;3.70;99.90;;;2.48;100.00;98921.69;5084377;28;20457;-75
2022/04/28 03:58:58;;;;;;;16.87;15.10;;;3.80;99.90;;;2.57;100.00;98929.84;5090441;28;20461;-76
2022/04/28 04:01:25;;;;;;;15.83;14.13;;;3.90;99.90;;;2.50;100.00;98927.75;5090868;28;21128;-77
2022/04/28 04:03:53;;;;;;;18.17;15.83;;;3.90;99.90;;;2.62;100.00;98928.44;5085922;28;20466;-76
2022/04/28 04:06:20;;;;;;;15.90;14.30;;;4.00;99.90;;;2.45;100.00;98916.63;5120693;27;20471;-75
2022/04/28 04:08:49;;;;;;;15.47;13.97;;;3.90;99.90;;;2.53;100.00;98938.13;5094347;28;20471;-75
2022/04/28 04:11:16;;;;;;;17.10;15.30;;;3.90;99.90;;;2.72;100.00;98938.22;5094281;28;20452;-75
2022/04/28 04:13:43;;;;;;;17.63;15.00;;;4.00;99.90;;;2.61;100.00;98905.41;5085902;28;20543;-77
2022/04/28 04:16:11;;;;;;;15.90;14.33;;;4.10;99.90;;;2.82;100.00;98937.25;5074119;28;21083;-74
2022/04/28 04:18:39;;;;;;;15.43;13.83;;;4.20;99.90;;;2.92;100.00;98934.56;5082058;28;20459;-73
2022/04/28 04:21:06;;;;;;;17.27;14.53;;;4.30;99.90;;;2.90;100.00;98927.69;5083328;28;20530;-74
2022/04/28 04:23:33;;;;;;;17.13;15.50;;;4.30;99.90;;;3.12;100.00;98934.50;5083245;28;21063;-78
2022/04/28 04:26:02;;;;;;;20.33;17.53;;;4.40;99.90;;;3.48;100.00;98917.78;5077446;28;20487;-79
2022/04/28 04:28:30;;;;;;;20.70;18.60;;;4.80;99.90;;;4.06;100.00;98923.81;5079631;28;20552;-76
2022/04/28 04:33:41;;;;;;;19.00;15.93;;;5.90;99.90;;;5.21;99.38;98937.28;5075881;28;20968;-74
2022/04/28 04:36:08;;;;;;;17.07;15.33;;;6.60;99.90;;;5.68;97.31;98940.53;5084491;28;20515;-76
2022/04/28 04:38:35;;;;;;;15.57;13.97;;;7.10;99.90;;;5.52;92.59;98885.00;5080706;28;20457;-76
2022/04/28 04:41:05;;;;;;;12.23;11.03;;;7.50;97.20;;;5.96;89.76;98935.75;5080129;28;20556;-79
2022/04/28 04:43:32;;;;;;;18.53;11.60;;;7.80;91.90;;;6.07;87.21;98944.56;5105348;28;20787;-79
2022/04/28 04:45:59;;;;;;;13.13;11.83;;;8.00;90.00;;;5.91;86.27;98939.94;5080575;28;20453;-77
2022/04/28 04:48:26;;;;;;;11.40;10.30;;;7.90;88.70;;;5.88;86.22;98943.78;5083967;28;20482;-78
2022/04/28 04:50:54;;;;;;;14.83;11.00;;;7.90;87.80;;;5.92;86.44;98947.81;5080049;28;21002;-81
2022/04/28 04:53:21;;;;;;;14.23;11.47;;;7.90;87.60;;;5.85;85.95;98949.50;5083077;28;20462;-80
2022/04/28 04:55:48;;;;;;;15.93;11.20;;;7.80;87.30;;;6.29;83.99;98955.66;5082253;28;20476;-78
2022/04/28 04:58:17;;;;;;;11.90;10.57;;;8.10;86.40;;;6.61;82.70;98964.78;5081304;28;20452;-74
2022/04/28 05:00:44;;;;;;;15.10;9.80;;;8.30;85.60;;;6.73;80.51;98957.22;5085357;28;20547;-78
2022/04/28 05:03:11;;;;;;;10.90;9.90;;;8.60;82.90;;;6.77;81.33;98950.50;5085304;28;20480;-78
2022/04/28 05:05:38;;;;;;;10.97;9.73;;;8.70;82.90;;;7.22;79.12;98962.56;5113806;27;20463;-74
2022/04/28 05:08:06;;;;;;;10.20;9.30;;;9.20;81.20;;;7.54;76.24;98964.50;5083794;28;20459;-83
2022/04/28 05:10:33;;;;;;;9.57;8.60;;;9.50;79.50;;;7.56;75.48;98968.72;5080997;28;20544;-81
2022/04/28 05:13:00;;;;;;;12.40;8.80;;;9.70;78.40;;;8.09;73.66;98970.84;5080474;28;20563;-83
2022/04/28 05:15:28;;;;;;;8.70;7.90;;;10.10;76.70;;;8.00;72.80;98953.91;5077370;28;20583;-82
2022/04/28 05:17:55;;;;;;;9.20;8.40;;;10.00;76.10;;;8.27;73.38;98967.06;5081499;28;20485;-71
2022/04/28 05:20:22;;;;;;;8.73;7.80;;;10.20;75.80;;;8.05;72.86;98966.84;5078377;28;20521;-79
2022/04/28 05:22:49;;;;;;;8.63;7.87;;;10.00;75.20;;;8.13;71.86;98974.88;5083218;28;20482;-75
2022/04/28 05:25:16;;;;;;;9.67;7.67;;;9.90;76.50;;;8.00;73.26;98977.31;5077015;28;20543;-77
2022/04/28 05:27:43;;;;;;;12.27;8.63;;;10.10;75.00;;;8.18;71.62;98974.34;5079011;28;20459;-73
2022/04/28 05:30:14;;;;;;;9.23;8.27;;;10.40;74.10;;;8.35;71.75;98977.78;5110441;27;20536;-76
2022/04/28 05:32:42;;;;;;;10.80;8.57;;;10.50;74.20;;;8.68;70.42;98974.91;5075561;28;20559;-76
2022/04/28 05:35:09;;;;;;;9.40;8.47;;;10.70;73.40;;;8.55;71.01;98978.19;5076322;28;20566;-76
2022/04/28 05:37:37;;;;;;;8.87;8.17;;;10.80;73.20;;;8.61;69.81;98982.03;5080157;28;20485;-75
2022/04/28 05:40:06;;;;;;;9.83;8.80;;;10.80;72.20;;;8.81;68.31;98922.25;5080770;28;20457;-77
2022/04/28 05:48:00;;;;;;;9.93;9.03;;;11.90;69.90;;;9.80;66.84;98972.50;5057890;28;20474;-77
2022/04/28 05:50:27;;;;;;;8.23;7.43;;;11.90;70.00;;;9.89;65.74;98990.25;5072343;28;20676;-75
2022/04/28 05:52:54;;;;;;;8.13;7.40;;;12.00;69.80;;;9.98;64.44;98995.56;5079205;28;20960;-76
2022/04/28 05:55:21;;;;;;;8.13;7.40;;;12.20;68.20;;;8.90;67.81;98989.38;5079447;28;20473;-74
2022/04/28 05:57:48;;;;;;;9.13;8.20;;;11.30;68.90;;;7.87;71.78;99000.22;5076448;28;20495;-73
2022/04/28 06:00:17;;;;;;;9.97;8.90;;;10.10;71.60;;;7.45;74.27;98998.66;5090379;28;20560;-74
2022/04/28 06:02:44;;;;;;;10.75;9.75;;;9.40;75.30;;;7.19;75.90;99003.22;5068507;28;21093;-74
2022/04/28 06:05:12;;;;;;;9.27;8.47;;;8.90;77.40;;;6.92;76.86;99005.25;5073394;28;20667;-72
2022/04/28 06:07:39;;;;;;;9.80;9.00;;;8.50;79.00;;;7.00;77.91;99000.91;5085671;28;20496;-72
2022/04/28 06:10:07;;;;;;;10.33;9.33;;;8.40;80.70;;;7.05;76.71;98999.38;5084811;28;20509;-74
2022/04/28 06:12:34;;;;;;;10.43;9.40;;;8.50;80.70;;;7.14;76.72;99007.44;5079690;28;20546;-74
2022/04/28 06:15:01;;;;;;;10.63;9.53;;;8.50;80.50;;;7.29;76.35;99012.97;5106579;27;20477;-73
2022/04/28 06:17:28;;;;;;;10.20;9.20;;;8.50;80.60;;;7.26;76.81;99008.78;5081743;28;20467;-73
2022/04/28 06:19:55;;;;;;;10.00;9.20;;;8.60;80.60;;;7.56;76.45;99013.56;5079322;28;20961;-73
2022/04/28 06:22:23;;;;;;;10.73;9.60;;;8.70;80.90;;;7.52;75.76;98980.84;5074386;28;20490;-73
2022/04/28 06:24:52;;;;;;;11.10;10.10;;;8.90;80.10;;;7.70;74.75;99012.06;5075873;28;20471;-74
2022/04/28 06:27:19;;;;;;;11.67;10.53;;;9.00;79.60;;;7.60;75.09;99014.94;5072115;28;20467;-72
2022/04/28 06:29:48;;;;;;;10.70;9.70;;;8.90;79.60;;;7.62;75.00;99007.53;5079448;28;20551;-74
2022/04/28 06:32:16;;;;;;;10.23;9.33;;;9.00;79.50;;;7.77;74.10;99023.78;5077714;28;20452;-73
2022/04/28 06:34:43;;;;;;;12.57;10.03;;;9.10;79.40;;;8.07;75.24;99007.88;5093736;28;20470;-74
2022/04/28 06:37:10;;;;;;;13.67;10.03;;;9.20;80.10;;;8.26;73.17;99019.22;5072968;28;20460;-74
2022/04/28 06:39:38;;;;;;;10.63;9.53;;;9.50;78.90;;;8.39;72.45;99010.59;5079829;28;20478;-73
2022/04/28 06:42:06;;;;;;;12.50;10.47;;;9.50;78.70;;;8.36;72.90;99011.78;5105414;28;20812;-72
2022/04/28 06:44:33;;;;;;;12.10;9.00;;;9.60;79.10;;;8.46;72.11;99012.41;5082251;28;20456;-76
2022/04/28 06:47:00;;;;;;;11.10;10.00;;;9.70;78.30;;;8.40;72.51;99002.31;5108932;28;20962;-72
2022/04/28 06:49:27;;;;;;;11.57;10.37;;;9.70;78.30;;;8.28;72.75;99019.91;5082106;28;20489;-74
2022/04/28 06:51:54;;;;;;;12.10;9.53;;;9.70;78.20;;;8.45;72.17;99016.09;5073571;28;20448;-73
2022/04/28 06:54:21;;;;;;;11.20;10.20;;;9.70;78.20;;;8.53;71.68;99022.47;5079053;28;20541;-74
2022/04/28 06:56:49;;;;;;;11.37;10.17;;;9.80;78.10;;;8.65;71.39;99021.06;5081006;28;20459;-75
2022/04/28 06:59:18;;;;;;;9.80;8.93;;;9.90;77.60;;;8.95;70.29;99020.34;5077898;28;20962;-73
2022/04/28 07:01:45;;;;;;;10.70;9.70;;;10.10;76.40;;;8.98;70.72;99022.69;5087442;28;20999;-73
2022/04/28 07:04:12;;;;;;;11.03;10.00;;;10.20;76.10;;;8.95;70.72;99021.19;5083990;28;20512;-70
2022/04/28 07:06:39;;;;;;;10.23;9.40;;;10.20;76.30;;;9.10;69.80;99018.56;5079371;28;20507;-74
2022/04/28 07:09:06;;;;;;;14.43;9.47;;;10.30;76.20;;;9.23;69.79;99023.31;5091198;28;20447;-74
2022/04/28 07:11:33;;;;;;;10.67;9.67;;;10.40;76.10;;;9.34;69.08;99022.03;5083434;28;20556;-72
2022/04/28 07:14:01;;;;;;;10.40;9.50;;;10.50;75.60;;;9.64;67.96;99014.84;5087614;28;20459;-71
2022/04/28 07:16:28;;;;;;;12.40;11.40;;;10.80;75.10;;;9.78;67.96;99025.81;5088374;28;20479;-74
2022/04/28 07:18:56;;;;;;;9.40;8.60;;;10.90;74.60;;;9.82;67.34;99028.97;5086364;28;20465;-73
2022/04/28 07:21:23;;;;;;;9.57;8.77;;;11.00;74.80;;;10.07;65.58;99024.13;5104533;28;20524;-71
2022/04/28 07:23:50;;;;;;;10.10;9.23;;;11.10;73.50;;;10.15;65.11;99026.75;5104571;28;20526;-73
2022/04/28 07:26:17;;;;;;;10.13;9.13;;;11.30;73.10;;;10.24;65.28;99034.75;5104343;28;20478;-72
2022/04/28 07:28:44;;;;;;;10.87;9.97;;;11.40;72.70;;;10.31;65.47;99033.81;5127764;27;20494;-69
2022/04/28 07:31:13;;;;;;;9.27;8.50;;;11.50;73.10;;;10.53;65.28;99031.16;5098016;28;20453;-69
2022/04/28 07:33:40;;;;;;;8.43;7.73;;;11.60;72.90;;;10.64;64.05;99040.66;5099327;28;20515;-71
2022/04/28 07:36:07;;;;;;;9.33;8.43;;;11.70;72.40;;;10.56;63.50;99038.06;5096121;28;20471;-70
2022/04/28 07:38:34;;;;;;;10.37;9.37;;;11.80;71.90;;;10.59;63.42;99043.09;5090363;28;20553;-71
2022/04/28 07:41:02;;;;;;;9.27;8.37;;;11.80;71.40;;;10.68;63.80;99044.63;5089609;28;20458;-71
2022/04/28 07:43:30;;;;;;;10.90;9.00;;;11.80;71.20;;;10.96;62.01;99033.06;5104427;28;20451;-71
2022/04/28 07:45:57;;;;;;;10.37;9.33;;;12.00;70.70;;;11.09;62.70;99040.50;5081482;28;22496;-70
2022/04/28 07:48:25;;;;;;;9.67;8.77;;;12.20;70.90;;;11.05;62.92;99037.31;5096187;28;20458;-70
2022/04/28 07:50:52;;;;;;;9.90;8.97;;;12.20;70.70;;;11.26;61.58;99057.28;5096578;28;20455;-69
2022/04/28 07:53:20;;;;;;;10.03;9.03;;;12.30;70.10;;;11.36;61.90;99048.81;5094592;28;20477;-70
2022/04/28 07:56:10;;;;;;;10.60;9.70;;;12.40;69.80;;;11.49;60.96;99048.09;5090479;28;20497;-69
2022/04/28 07:58:35;;;;;;;10.07;8.97;;;12.60;69.40;;;11.58;60.84;99046.09;5083491;28;20467;-70
2022/04/28 08:01:02;;;;;;;9.57;8.67;;;12.70;69.10;;;11.61;60.23;99046.53;5099221;28;20521;-71
2022/04/28 08:03:31;;;;;;;9.70;8.80;;;12.80;68.50;;;11.72;59.92;99042.44;5084670;28;20482;-71
2022/04/28 08:05:59;;;;;;;9.67;8.80;;;12.80;68.00;;;11.95;58.78;99040.50;5066619;28;21141;-70
2022/04/28 08:08:26;;;;;;;9.63;8.73;;;13.00;67.60;;;12.04;58.97;99040.16;5082550;28;20588;-71
2022/04/28 08:10:53;;;;;;;10.60;8.80;;;13.10;67.10;;;12.24;57.47;99042.13;5080060;28;20436;-71
2022/04/28 08:13:20;;;;;;;8.73;7.93;;;13.30;66.10;;;12.07;56.67;99002.88;5086652;28;20949;-70
2022/04/28 08:15:47;;;;;;;9.80;8.80;;;13.50;65.20;;;12.27;54.97;99043.63;5120680;27;20805;-71
2022/04/28 08:18:15;;;;;;;10.33;9.33;;;13.50;63.30;;;12.32;54.83;99035.72;5088591;28;20522;-71
2022/04/28 08:20:43;;;;;;;9.07;8.07;;;13.40;62.70;;;12.82;53.44;99034.63;5082981;28;20453;-70
2022/04/28 08:23:10;;;;;;;9.40;8.40;;;13.70;62.40;;;12.88;53.08;99039.22;5087696;28;20497;-71
2022/04/28 08:25:38;;;;;;;11.50;9.17;;;13.90;61.80;;;13.07;52.63;99031.31;5085720;28;20458;-70
2022/04/28 08:28:05;;;;;;;10.20;9.20;;;14.10;61.20;;;13.31;51.86;99044.28;5085577;28;20440;-71
2022/04/28 08:30:33;;;;;;;9.77;8.87;;;14.30;60.40;;;13.42;51.53;99039.25;5086804;28;20535;-71
2022/04/28 08:33:01;;;;;;;10.50;9.50;;;14.50;60.40;;;13.30;51.88;99041.78;5105777;27;20475;-71
2022/04/28 08:35:30;;;;;;;9.50;8.20;;;14.40;59.80;;;13.70;49.03;99041.81;5078499;28;20475;-71
2022/04/28 08:37:58;;;;;;;7.90;7.10;;;14.60;58.30;;;13.60;47.45;99042.22;5087945;28;20788;-71
2022/04/28 08:40:26;;;;;;;8.50;7.30;;;14.70;56.10;;;13.42;47.60;99048.25;5083845;28;20445;-71
2022/04/28 08:42:56;;;;;;;7.40;6.70;;;14.60;55.60;;;13.69;46.93;99045.56;5083254;28;20563;-70
2022/04/28 08:45:29;;;;;;;8.10;7.30;;;14.70;55.30;;;13.84;47.10;99036.34;5078537;28;20489;-70
2022/04/28 08:47:59;;;;;;;7.80;6.83;;;14.80;55.20;;;13.83;46.16;99035.50;5085756;28;20454;-70
2022/04/28 08:50:26;;;;;;;6.40;5.80;;;15.00;53.90;;;13.63;44.74;99032.00;5081875;28;20484;-70
2022/04/28 08:52:57;;;;;;;7.63;6.07;;;14.90;52.80;;;13.85;44.24;99032.59;5085447;28;20784;-70
2022/04/28 08:55:24;;;;;;;7.70;5.77;;;14.90;52.30;;;14.12;44.20;99037.97;5086522;28;20559;-71
2022/04/28 08:57:51;;;;;;;6.37;5.53;;;15.10;52.20;;;14.07;44.44;98980.69;5085055;28;20464;-70
2022/04/28 09:00:19;;;;;;;7.90;6.27;;;15.30;52.50;;;14.44;43.90;99033.44;5076854;28;20538;-71
2022/04/28 09:02:46;;;;;;;7.07;6.47;;;15.40;52.10;;;14.42;43.06;99037.44;5066018;28;20496;-71
2022/04/28 09:05:18;;;;;;;5.90;5.40;;;15.50;51.30;;;14.55;41.90;99042.78;5084995;28;20547;-70
2022/04/28 09:07:45;;;;;;;5.13;4.63;;;15.50;50.70;;;14.80;40.44;99039.34;5087447;28;20537;-70
2022/04/28 09:10:30;;;;;;;6.30;5.70;;;15.70;49.20;;;14.86;39.70;99037.66;5076189;28;20480;-70
2022/04/28 09:14:08;;;;;;;5.90;5.40;;;15.90;48.20;;;15.02;40.13;99036.31;5089107;28;20459;-70
2022/04/28 09:15:48;;;;;;;7.00;5.23;;;16.00;48.40;;;14.90;39.07;99041.59;5076600;28;20470;-70
2022/04/28 09:18:16;;;;;;;5.77;5.23;;;16.00;47.30;;;15.15;39.68;99027.22;5075209;28;20456;-70
2022/04/28 09:20:43;;;;;;;4.90;4.50;;;16.20;48.00;;;15.33;36.97;99040.06;5113188;27;20437;-70
2022/04/28 09:23:11;;;;;;;5.90;5.30;;;16.30;45.90;;;15.48;36.37;99036.16;5079893;28;20464;-70
2022/04/28 09:25:40;;;;;;;5.47;4.97;;;16.50;45.70;;;15.72;35.25;99040.75;5076575;28;20545;-70
2022/04/28 09:28:11;;;;;;;6.33;5.73;;;16.60;44.60;;;15.46;35.42;99044.56;5079879;28;20451;-70
2022/04/28 09:30:47;;;;;;;5.10;4.63;;;16.60;44.00;;;15.94;32.42;99036.81;5078737;28;20447;-70
2022/04/28 09:33:17;;;;;;;5.20;4.80;;;16.80;41.90;;;16.11;31.79;99032.41;5078619;28;20476;-71
2022/04/28 09:35:47;;;;;;;4.93;4.53;;;17.00;41.00;;;16.92;31.31;99025.94;5079275;28;20542;-71
2022/04/28 09:38:14;;;;;;;5.97;5.37;;;17.60;41.10;;;17.08;30.67;99012.72;5081447;28;21133;-70
2022/04/28 09:43:30;;;;;;;5.40;4.10;;;18.30;40.30;;;17.53;29.54;99019.53;5075149;28;20553;-71
2022/04/28 09:46:00;;;;;;;4.80;4.40;;;18.60;39.70;;;17.36;27.75;99013.94;5078189;28;20468;-70
2022/04/28 09:48:30;;;;;;;4.70;4.30;;;18.50;37.20;;;17.73;27.64;99015.63;5081982;28;20971;-71
2022/04/28 09:51:07;;;;;;;4.50;4.10;;;18.60;37.40;;;18.10;27.66;99012.66;5089609;28;20454;-69
2022/04/28 09:53:37;;;;;;;4.47;4.07;;;18.90;37.70;;;18.74;27.50;99016.41;5087149;28;20449;-72
2022/04/28 09:56:07;;;;;;;4.30;4.00;;;19.40;38.00;;;18.53;28.58;99018.72;5078459;28;20492;-70
2022/04/28 09:58:34;;;;;;;5.83;5.17;;;19.60;38.10;;;18.01;27.17;99014.91;5078752;28;21293;-70
2022/04/28 10:01:03;;;;;;;5.63;4.70;;;19.20;36.60;;;18.49;27.19;99001.13;5081672;28;20456;-70
2022/04/28 10:03:33;;;;;;;5.33;4.83;;;19.40;36.90;;;18.65;27.64;99016.78;5074675;28;20466;-70
2022/04/28 10:06:02;;;;;;;5.07;4.57;;;19.40;37.50;;;18.14;28.32;99013.81;5079814;28;20873;-71
2022/04/28 10:08:32;;;;;;;6.07;4.83;;;19.30;37.30;;;17.86;28.13;99014.56;5078557;28;22842;-72
2022/04/28 10:11:03;;;;;;;5.00;4.60;;;19.10;36.80;;;18.34;28.99;99013.44;5079987;28;20452;-72
2022/04/28 10:13:33;;;;;;;4.37;3.87;;;19.20;37.90;;;18.57;28.34;99016.34;5080892;28;20848;-71
2022/04/28 10:16:03;;;;;;;4.37;3.97;;;19.50;38.10;;;18.65;28.62;99018.66;5081000;28;20500;-71
2022/04/28 10:18:37;;;;;;;4.93;4.53;;;19.60;38.10;;;18.35;28.75;99011.50;5080380;28;20458;-72
2022/04/28 10:21:06;;;;;;;4.40;4.00;;;19.50;37.80;;;18.15;30.43;99014.69;5080888;28;20618;-71
2022/04/28 10:35:07;;;;;;;6.00;3.90;;;18.50;39.40;;;17.39;33.13;99018.94;5084782;28;20457;-70
2022/04/28 10:37:36;;;;;;;4.57;4.27;;;18.30;40.20;;;17.24;32.00;99017.50;5086075;28;20573;-71
2022/04/28 10:40:05;;;;;;;3.63;3.40;;;18.30;39.30;;;17.36;32.57;99011.22;5084398;28;20459;-71
2022/04/28 10:43:01;;;;;;;3.50;3.30;;;18.30;39.70;;;17.06;33.87;98963.81;5103834;28;20536;-69
2022/04/28 10:45:40;;;;;;;3.97;3.63;;;18.40;40.60;;;17.60;31.74;99001.16;5080915;28;20474;-71
2022/04/28 10:48:25;;;;;;;4.27;3.97;;;18.60;39.50;;;17.52;32.73;99012.41;5080610;28;20923;-71
2022/04/28 10:51:13;;;;;;;4.70;4.00;;;18.50;39.90;;;17.39;32.02;99008.03;5063173;28;20500;-71
2022/04/28 10:54:09;;;;;;;4.80;4.30;;;18.40;39.20;;;17.39;31.76;99003.38;5081512;28;20525;-70
2022/04/28 10:57:01;;;;;;;4.03;3.73;;;18.40;39.40;;;16.58;33.12;98889.16;5082051;28;20626;-71
2022/04/28 10:59:37;;;;;;;4.40;4.00;;;18.40;39.70;;;17.35;30.80;98994.00;5081891;28;20454;-70